Time;durP1;ratioP1;P1;durP2;ratioP2;P2;SDS_P1;SDS_P2;PMS_P1;PMS_P2;Temp;Humidity;BMP_temperature;BMP_pressure;BME280_temperature;BME280_humidity;BME280_pressure;Samples;Min_cycle;Max_cycle;Signal;HPM_P1;HPM_P2
2023/10/22 00:01:24;;;;;;;4.00;0.60;;;;;;;13.79;64.25;149559.16;4995920;28;20227;-60
2023/10/22 00:03:51;;;;;;;2.40;0.70;;;;;;;13.71;64.16;149541.72;4996478;28;20222;-61
2023/10/22 00:06:17;;;;;;;2.53;0.70;;;;;;;13.61;64.53;149515.50;4996585;28;20229;-61
2023/10/22 00:08:44;;;;;;;3.90;0.97;;;;;;;13.54;64.71;149500.50;4994433;28;20246;-61
2023/10/22 00:11:11;;;;;;;1.73;0.60;;;;;;;13.43;65.12;149474.31;4993907;28;20235;-61
2023/10/22 00:13:38;;;;;;;1.77;0.50;;;;;;;13.60;64.70;149513.00;4995837;28;20229;-61
2023/10/22 00:16:05;;;;;;;2.40;0.40;;;;;;;13.53;65.53;149496.78;5001921;28;20230;-61
2023/10/22 00:18:32;;;;;;;2.73;0.30;;;;;;;13.48;65.97;149484.31;5002274;28;20237;-61
2023/10/22 00:20:58;;;;;;;1.77;0.50;;;;;;;13.53;64.81;149498.00;4996863;28;20233;-61
2023/10/22 00:23:25;;;;;;;2.50;0.60;;;;;;;13.57;64.85;149508.00;4999651;28;20225;-61
2023/10/22 00:25:51;;;;;;;2.37;0.60;;;;;;;13.53;65.15;149498.00;5000426;28;20234;-60
2023/10/22 00:28:18;;;;;;;3.53;0.43;;;;;;;13.62;64.48;149519.25;5000101;28;20672;-61
2023/10/22 00:30:48;;;;;;;2.97;0.47;;;;;;;13.45;65.65;149478.03;4998750;28;20216;-61
2023/10/22 00:33:15;;;;;;;2.60;0.60;;;;;;;13.43;65.73;149474.31;4998831;28;20239;-61
2023/10/22 00:35:42;;;;;;;1.60;0.50;;;;;;;13.45;65.77;149476.81;4992773;28;20224;-61
2023/10/22 00:38:08;;;;;;;3.47;0.60;;;;;;;13.46;65.34;149480.53;4996578;28;20237;-61
2023/10/22 00:40:36;;;;;;;2.03;0.47;;;;;;;13.48;65.33;149485.53;4995025;28;20820;-61
2023/10/22 00:43:05;;;;;;;2.37;0.53;;;;;;;13.33;66.09;149449.31;5004239;28;20228;-61
2023/10/22 00:45:36;;;;;;;1.83;0.67;;;;;;;13.35;66.25;149453.03;4999806;28;20302;-61
2023/10/22 00:48:05;;;;;;;3.70;0.73;;;;;;;13.22;67.22;149421.88;4997307;28;20287;-61
2023/10/22 00:50:32;;;;;;;2.83;0.50;;;;;;;13.25;66.60;149429.38;4995891;28;20229;-61
2023/10/22 00:52:59;;;;;;;1.80;0.60;;;;;;;13.16;67.36;149406.91;4992790;28;20240;-60
2023/10/22 00:55:26;;;;;;;2.50;0.70;;;;;;;13.04;67.65;149378.22;4995837;28;20234;-61
2023/10/22 00:57:53;;;;;;;2.73;0.60;;;;;;;12.93;68.89;149353.28;4995984;28;20296;-61
2023/10/22 01:00:21;;;;;;;2.40;0.50;;;;;;;12.87;69.21;149337.03;4995262;28;20223;-61
2023/10/22 01:02:52;;;;;;;3.03;0.50;;;;;;;12.81;69.80;149323.34;5008602;28;20241;-61
2023/10/22 01:05:21;;;;;;;3.67;0.60;;;;;;;12.78;70.25;149317.09;4997260;28;20269;-60
2023/10/22 01:07:54;;;;;;;2.07;0.67;;;;;;;12.98;69.04;149364.50;4998873;28;20233;-61
2023/10/22 01:10:21;;;;;;;3.33;0.80;;;;;;;12.90;69.56;149345.78;5000936;28;20239;-60
2023/10/22 01:12:52;;;;;;;2.47;0.43;;;;;;;12.79;69.81;149318.34;4994606;28;22453;-60
2023/10/22 01:15:19;;;;;;;2.60;0.70;;;;;;;12.73;69.91;149303.38;4997338;28;20440;-60
2023/10/22 01:17:46;;;;;;;1.20;0.50;;;;;;;12.66;70.61;149288.41;5001597;28;20683;-61
2023/10/22 01:20:13;;;;;;;2.03;0.50;;;;;;;12.51;71.70;149252.28;4996546;28;20629;-61
2023/10/22 01:22:41;;;;;;;3.20;0.70;;;;;;;12.46;71.98;149239.81;4996188;28;20224;-60
2023/10/22 01:25:10;;;;;;;1.67;0.57;;;;;;;12.55;70.73;149262.25;5002672;28;20229;-61
2023/10/22 01:27:37;;;;;;;2.17;0.50;;;;;;;12.77;69.59;149313.38;4996740;28;20215;-60
2023/10/22 01:30:05;;;;;;;2.27;0.57;;;;;;;12.72;70.68;149302.13;4996468;28;20692;-61
2023/10/22 01:32:33;;;;;;;3.43;0.80;;;;;;;12.54;71.57;149258.47;4997138;28;20243;-61
2023/10/22 01:35:00;;;;;;;3.37;0.80;;;;;;;12.67;70.14;149289.69;4993749;28;20237;-61
2023/10/22 01:37:28;;;;;;;2.63;0.60;;;;;;;12.52;71.42;149253.50;4995389;28;20240;-61
2023/10/22 01:39:57;;;;;;;3.70;0.60;;;;;;;12.52;71.43;149254.75;4994334;28;20240;-61
2023/10/22 01:42:25;;;;;;;2.53;0.60;;;;;;;12.45;71.96;149236.03;5001693;28;20233;-61
2023/10/22 01:44:52;;;;;;;3.53;0.60;;;;;;;12.32;71.91;149204.88;4998644;28;20216;-61
2023/10/22 01:47:18;;;;;;;2.10;0.50;;;;;;;12.32;72.26;149204.88;4996869;28;20234;-61
2023/10/22 01:49:45;;;;;;;3.87;0.80;;;;;;;12.45;71.44;149236.03;4993462;28;20789;-61
2023/10/22 01:52:11;;;;;;;5.13;0.67;;;;;;;12.35;72.00;149212.38;4998834;28;20238;-60
2023/10/22 01:54:39;;;;;;;3.83;0.80;;;;;;;12.42;71.53;149228.56;4992421;28;20715;-61
2023/10/22 01:57:05;;;;;;;6.07;0.80;;;;;;;12.27;72.50;149193.63;4991501;28;20243;-61
2023/10/22 01:59:33;;;;;;;1.80;0.67;;;;;;;12.16;72.91;149166.25;5002400;28;20245;-61
2023/10/22 02:02:00;;;;;;;4.63;0.80;;;;;;;12.05;73.61;149140.03;4993858;28;20228;-61
2023/10/22 02:04:30;;;;;;;4.33;0.93;;;;;;;12.31;72.41;149203.63;4996773;28;20235;-61
2023/10/22 02:06:56;;;;;;;2.07;0.70;;;;;;;12.17;72.93;149168.75;4996063;28;20232;-61
2023/10/22 02:09:26;;;;;;;2.57;0.60;;;;;;;12.18;73.11;149172.47;5003553;28;20233;-61
2023/10/22 02:11:52;;;;;;;2.80;0.70;;;;;;;12.29;73.16;149197.41;5000422;28;22844;-61
2023/10/22 02:14:19;;;;;;;4.30;0.77;;;;;;;12.30;71.55;149201.13;5003427;28;20238;-60
2023/10/22 02:16:47;;;;;;;2.93;1.33;;;;;;;12.18;72.60;149171.25;5001260;28;20229;-61
2023/10/22 02:19:14;;;;;;;2.77;0.70;;;;;;;12.09;73.84;149150.03;4997912;28;20252;-61
2023/10/22 02:21:40;;;;;;;3.90;0.70;;;;;;;12.00;73.10;149127.56;5005483;28;20217;-60
2023/10/22 02:24:07;;;;;;;1.63;0.77;;;;;;;11.90;74.14;149103.88;4996540;28;20227;-61
2023/10/22 02:26:34;;;;;;;4.73;1.10;;;;;;;11.76;75.06;149070.19;4999622;28;20233;-61
2023/10/22 02:29:01;;;;;;;5.40;0.57;;;;;;;11.94;73.69;149113.84;4993657;28;20230;-61
2023/10/22 02:31:28;;;;;;;3.70;0.60;;;;;;;11.88;74.58;149098.88;4994371;28;20233;-60
2023/10/22 02:34:03;;;;;;;3.40;0.70;;;;;;;12.00;73.24;149127.56;4990383;28;20684;-60
2023/10/22 02:36:29;;;;;;;2.90;0.67;;;;;;;11.87;73.98;149097.59;5000999;28;20231;-61
2023/10/22 02:38:56;;;;;;;2.27;0.50;;;;;;;12.10;73.29;149152.50;5011126;28;20228;-61
2023/10/22 02:41:23;;;;;;;5.40;0.70;;;;;;;11.99;73.81;149125.03;5006469;28;20253;-60
2023/10/22 02:43:50;;;;;;;2.40;0.60;;;;;;;11.93;74.46;149112.56;5000645;28;20228;-61
2023/10/22 02:46:16;;;;;;;3.13;0.83;;;;;;;11.83;74.33;149087.63;5006098;28;20227;-61
2023/10/22 02:48:43;;;;;;;3.80;1.00;;;;;;;11.62;76.22;149036.56;5000394;28;20226;-61
2023/10/22 02:51:11;;;;;;;2.70;0.77;;;;;;;11.49;76.76;149006.63;5001268;28;20264;-60
2023/10/22 02:53:38;;;;;;;4.70;0.70;;;;;;;11.41;77.10;148985.47;4993752;28;20228;-61
2023/10/22 02:56:07;;;;;;;4.07;0.70;;;;;;;11.64;76.64;149042.81;5016173;28;20325;-61
2023/10/22 02:58:33;;;;;;;3.80;0.60;;;;;;;11.48;76.97;149002.94;4998721;28;20242;-61
2023/10/22 03:01:04;;;;;;;6.60;0.80;;;;;;;11.57;77.22;149025.34;5005080;28;20722;-61
2023/10/22 03:03:31;;;;;;;4.57;0.80;;;;;;;11.79;75.63;149077.66;5005675;28;20238;-61
2023/10/22 03:05:58;;;;;;;3.53;0.60;;;;;;;11.93;74.20;149112.56;4996346;28;20302;-61
2023/10/22 03:08:26;;;;;;;8.07;0.97;;;;;;;11.86;74.05;149095.13;5007670;28;20389;-60
2023/10/22 03:10:53;;;;;;;4.93;1.37;;;;;;;11.88;74.11;149100.09;5003128;28;20263;-60
2023/10/22 03:13:20;;;;;;;4.10;0.80;;;;;;;11.71;75.03;149057.72;5005236;28;20221;-61
2023/10/22 03:15:47;;;;;;;3.83;0.87;;;;;;;12.02;72.83;149132.56;5002608;28;20225;-61
2023/10/22 03:18:14;;;;;;;2.50;0.60;;;;;;;12.11;72.61;149155.00;5004864;28;20225;-61
2023/10/22 03:20:42;;;;;;;2.90;0.60;;;;;;;11.93;73.09;149112.56;5009531;28;20308;-61
2023/10/22 03:23:09;;;;;;;5.87;0.73;;;;;;;11.90;73.25;149105.09;5004701;28;20234;-61
2023/10/22 03:25:39;;;;;;;3.20;0.60;;;;;;;11.87;72.29;149097.59;4996071;28;20311;-61
2023/10/22 03:28:06;;;;;;;5.40;0.57;;;;;;;11.75;72.41;149067.69;5002162;28;20222;-61
2023/10/22 03:33:20;;;;;;;4.13;0.53;;;;;;;11.77;73.24;149073.94;4982137;28;20226;-60
2023/10/22 03:35:48;;;;;;;2.80;0.97;;;;;;;11.71;73.06;149059.00;4986669;28;20228;-60
2023/10/22 03:38:15;;;;;;;5.63;1.13;;;;;;;11.60;74.59;149031.56;4975940;28;20248;-61
2023/10/22 03:40:43;;;;;;;3.60;0.90;;;;;;;11.69;73.92;149054.00;4973909;28;20223;-61
2023/10/22 03:43:10;;;;;;;3.10;0.90;;;;;;;11.58;74.07;149027.84;4996317;28;20227;-61
2023/10/22 03:45:37;;;;;;;5.20;0.70;;;;;;;11.58;74.40;149027.84;5045773;22;20628;-54
2023/10/22 03:48:05;;;;;;;3.33;0.70;;;;;;;11.55;74.42;149020.38;5043491;28;20240;-54
2023/10/22 03:50:31;;;;;;;5.77;0.70;;;;;;;11.35;76.96;148973.03;5046332;28;20235;-52
2023/10/22 03:52:58;;;;;;;4.20;0.67;;;;;;;11.45;75.68;148995.44;5063348;28;20258;-52
2023/10/22 03:55:25;;;;;;;2.57;0.80;;;;;;;11.33;76.37;148968.03;5065069;28;20287;-52
2023/10/22 03:57:54;;;;;;;3.30;0.50;;;;;;;11.46;75.11;148999.16;5062408;28;21141;-53
2023/10/22 04:00:21;;;;;;;8.63;1.00;;;;;;;11.33;76.50;148966.75;5066430;28;20240;-54
2023/10/22 04:02:52;;;;;;;4.83;0.90;;;;;;;11.39;75.61;148980.50;5062688;28;20234;-51
2023/10/22 04:05:19;;;;;;;3.37;0.80;;;;;;;11.43;74.97;148990.47;5064377;28;20249;-51
2023/10/22 04:07:46;;;;;;;5.77;0.77;;;;;;;11.49;74.76;149005.41;5048175;28;20222;-52
2023/10/22 04:10:12;;;;;;;3.77;0.57;;;;;;;11.28;76.04;148955.56;5061936;28;20232;-53
2023/10/22 04:12:39;;;;;;;5.47;0.80;;;;;;;11.20;76.67;148935.63;5060727;28;20223;-52
2023/10/22 04:15:08;;;;;;;4.53;0.70;;;;;;;11.19;77.70;148934.38;5066484;28;20823;-54
2023/10/22 04:17:35;;;;;;;1.70;0.60;;;;;;;11.15;76.50;148923.16;5062543;28;20214;-55
2023/10/22 04:20:02;;;;;;;3.93;1.10;;;;;;;11.10;77.57;148910.72;5065820;28;20233;-53
2023/10/22 04:22:32;;;;;;;3.83;1.00;;;;;;;11.40;76.24;148982.97;5062941;28;20261;-52
2023/10/22 04:25:13;;;;;;;4.70;0.90;;;;;;;11.25;77.20;148948.09;4973305;28;20305;-55
2023/10/22 04:27:40;;;;;;;3.73;0.63;;;;;;;11.12;78.73;148916.97;4893201;28;20231;-54
2023/10/22 04:30:14;;;;;;;4.57;0.90;;;;;;;11.20;77.98;148935.63;5022360;28;20241;-52
2023/10/22 04:32:42;;;;;;;7.00;1.03;;;;;;;11.17;77.11;148929.38;5058020;28;20231;-52
2023/10/22 04:35:12;;;;;;;4.77;1.10;;;;;;;11.26;77.25;148949.31;5006776;28;20233;-53
2023/10/22 04:37:42;;;;;;;5.90;1.10;;;;;;;11.33;76.14;148966.75;4975747;28;20229;-54
2023/10/22 04:40:16;;;;;;;8.00;1.00;;;;;;;11.21;77.48;148938.13;5043153;28;20612;-55
2023/10/22 04:42:46;;;;;;;5.73;0.63;;;;;;;11.22;77.16;148940.63;5002664;28;20218;-53
2023/10/22 04:45:18;;;;;;;6.23;0.73;;;;;;;11.33;76.36;148966.75;5046534;28;20290;-53
2023/10/22 04:47:49;;;;;;;3.77;0.63;;;;;;;11.36;76.01;148975.50;4978974;28;20790;-56
2023/10/22 04:50:19;;;;;;;3.77;0.73;;;;;;;11.34;77.16;148969.25;5022412;28;20720;-53
2023/10/22 04:52:46;;;;;;;2.73;0.60;;;;;;;11.28;76.08;148954.31;5057425;28;20676;-54
2023/10/22 04:55:13;;;;;;;2.60;0.60;;;;;;;11.47;75.73;149000.44;5063494;28;20241;-54
2023/10/22 04:57:42;;;;;;;6.63;0.87;;;;;;;11.67;74.46;149050.25;5025288;28;20206;-55
2023/10/22 05:00:10;;;;;;;7.63;1.00;;;;;;;11.62;74.25;149037.81;4982889;28;20227;-52
2023/10/22 05:02:38;;;;;;;3.87;0.87;;;;;;;11.46;76.23;148999.16;5050948;28;20231;-51
2023/10/22 05:05:11;;;;;;;5.57;0.90;;;;;;;11.45;76.20;148995.44;5064077;28;20245;-53
2023/10/22 05:07:48;;;;;;;6.07;0.90;;;;;;;11.47;75.39;149001.66;5012686;28;20815;-54
2023/10/22 05:10:24;;;;;;;3.23;0.80;;;;;;;11.34;77.15;148969.25;4958360;28;20807;-53
2023/10/22 05:13:12;;;;;;;3.77;1.20;;;;;;;11.25;76.83;148948.09;4970083;28;20411;-56
2023/10/22 05:15:54;;;;;;;7.43;0.90;;;;;;;11.10;78.69;148910.72;5013738;28;20215;-53
2023/10/22 05:18:32;;;;;;;4.63;0.70;;;;;;;11.26;76.66;148950.59;5016175;28;20590;-54
2023/10/22 05:21:01;;;;;;;5.20;0.80;;;;;;;11.36;76.47;148975.50;4997431;28;20238;-52
2023/10/22 05:23:28;;;;;;;5.20;0.80;;;;;;;11.15;77.58;148924.41;5057930;28;20675;-54
2023/10/22 05:26:03;;;;;;;7.40;1.10;;;;;;;11.22;78.16;148940.63;5061460;28;20245;-54
2023/10/22 05:28:30;;;;;;;5.17;0.83;;;;;;;11.16;76.43;148926.88;5063500;28;20694;-54
2023/10/22 05:30:56;;;;;;;7.20;1.00;;;;;;;11.15;77.75;148924.41;5053900;28;20243;-50
2023/10/22 05:33:23;;;;;;;8.20;1.37;;;;;;;11.33;75.83;148966.75;5063060;28;20886;-50
2023/10/22 05:35:51;;;;;;;4.83;1.07;;;;;;;11.71;74.18;149057.72;5043506;28;20229;-51
2023/10/22 05:38:18;;;;;;;5.73;1.00;;;;;;;11.48;75.59;149002.94;5064403;28;20315;-50
2023/10/22 05:40:44;;;;;;;6.93;0.73;;;;;;;11.48;75.10;149002.94;5061549;28;20684;-50
2023/10/22 05:43:11;;;;;;;6.77;0.80;;;;;;;11.43;75.98;148990.47;5064216;28;20228;-50
2023/10/22 05:45:38;;;;;;;3.73;0.90;;;;;;;11.27;77.37;148953.06;5061663;28;20262;-50
2023/10/22 05:48:05;;;;;;;4.73;0.57;;;;;;;11.14;77.90;148920.69;5063906;28;20696;-52
2023/10/22 05:50:31;;;;;;;5.23;1.00;;;;;;;11.30;77.30;148960.56;5063697;28;20231;-51
2023/10/22 05:52:59;;;;;;;4.13;0.97;;;;;;;11.27;77.69;148951.81;5045294;28;20237;-52
2023/10/22 05:55:26;;;;;;;5.00;0.83;;;;;;;11.22;78.59;148940.63;5058744;28;20222;-51
2023/10/22 05:57:52;;;;;;;6.87;0.90;;;;;;;11.21;78.58;148938.13;5061577;28;23377;-51
2023/10/22 06:00:19;;;;;;;4.23;1.07;;;;;;;11.28;78.82;148954.31;5063955;28;20230;-52
2023/10/22 06:02:46;;;;;;;4.63;1.10;;;;;;;11.35;77.80;148971.75;5061298;28;20724;-51
2023/10/22 06:05:13;;;;;;;7.40;0.90;;;;;;;11.30;77.70;148959.28;5063962;28;20235;-51
2023/10/22 06:07:39;;;;;;;5.97;0.90;;;;;;;11.22;77.85;148940.63;5061293;28;20214;-51
2023/10/22 06:10:10;;;;;;;4.37;0.80;;;;;;;11.26;78.04;148950.59;5066098;28;20229;-52
2023/10/22 06:12:36;;;;;;;5.70;0.70;;;;;;;11.45;77.26;148995.44;5057334;28;20703;-51
2023/10/22 06:15:04;;;;;;;5.25;0.88;;;;;;;11.40;77.71;148984.22;5067323;28;20430;-52
2023/10/22 06:17:31;;;;;;;5.00;0.93;;;;;;;11.37;78.38;148976.72;5061685;28;20278;-53
2023/10/22 06:19:57;;;;;;;6.50;0.90;;;;;;;11.41;77.51;148985.47;5065423;28;20234;-54
2023/10/22 06:22:24;;;;;;;5.93;1.03;;;;;;;11.48;77.37;149002.94;5067794;28;20303;-52
2023/10/22 06:24:51;;;;;;;4.60;0.70;;;;;;;11.50;76.65;149009.13;5064076;28;20224;-52
2023/10/22 06:27:19;;;;;;;5.83;1.10;;;;;;;11.45;77.67;148995.44;5066801;28;20685;-51
2023/10/22 06:29:48;;;;;;;5.80;1.23;;;;;;;11.53;77.12;149015.38;5064198;28;20235;-53
2023/10/22 06:32:14;;;;;;;9.23;1.10;;;;;;;11.48;77.29;149004.16;5044910;28;20280;-50
2023/10/22 06:34:44;;;;;;;5.20;0.80;;;;;;;11.51;77.04;149011.63;5063787;28;20241;-55
2023/10/22 06:37:11;;;;;;;6.73;1.10;;;;;;;11.58;76.36;149026.59;5061933;28;20228;-52
2023/10/22 06:39:37;;;;;;;3.63;0.90;;;;;;;11.53;75.87;149015.38;5064414;28;20333;-53
2023/10/22 06:42:04;;;;;;;8.30;0.80;;;;;;;11.51;76.00;149010.41;5059443;28;20234;-53
2023/10/22 06:44:32;;;;;;;3.50;0.80;;;;;;;11.44;77.39;148992.97;5048766;28;20260;-51
2023/10/22 06:46:59;;;;;;;3.10;0.80;;;;;;;11.47;76.24;149000.44;5064789;28;20237;-52
2023/10/22 06:49:26;;;;;;;3.27;0.73;;;;;;;11.58;76.16;149027.84;5066484;28;20328;-52
2023/10/22 06:51:52;;;;;;;4.73;0.70;;;;;;;11.71;74.94;149057.72;5063513;28;20225;-53
2023/10/22 06:54:19;;;;;;;4.47;0.70;;;;;;;11.79;74.25;149078.94;5059334;28;20219;-52
2023/10/22 06:56:46;;;;;;;6.50;1.00;;;;;;;11.69;75.39;149052.75;5064042;28;20223;-53
2023/10/22 06:59:12;;;;;;;5.83;1.03;;;;;;;11.70;76.02;149055.22;5067566;28;20236;-53
2023/10/22 07:01:40;;;;;;;2.77;0.50;;;;;;;11.78;75.00;149076.44;5063502;28;21095;-53
2023/10/22 07:04:07;;;;;;;4.73;0.80;;;;;;;11.83;75.14;149087.63;5067009;28;20230;-51
2023/10/22 07:06:33;;;;;;;4.70;0.90;;;;;;;11.87;74.49;149096.38;5064718;28;20229;-53
2023/10/22 07:09:00;;;;;;;13.23;9.80;;;;;;;11.89;74.32;149101.38;5065771;28;20226;-52
2023/10/22 07:11:27;;;;;;;4.10;0.80;;;;;;;11.93;73.24;149112.56;5066475;28;20226;-52
2023/10/22 07:13:53;;;;;;;6.27;4.03;;;;;;;11.95;74.60;149117.56;5062427;28;20240;-54
2023/10/22 07:16:20;;;;;;;6.50;1.35;;;;;;;12.06;73.02;149142.53;5065713;28;20443;-54
2023/10/22 07:18:48;;;;;;;6.57;3.50;;;;;;;12.12;72.34;149157.50;5056624;28;20211;-53
2023/10/22 07:21:14;;;;;;;8.03;6.10;;;;;;;12.13;73.19;149160.00;5066287;28;20231;-53
2023/10/22 07:23:41;;;;;;;3.00;0.90;;;;;;;12.13;73.19;149158.78;5062355;28;20304;-53
2023/10/22 07:26:08;;;;;;;5.17;0.80;;;;;;;12.13;73.57;149160.00;5065182;28;20239;-53
2023/10/22 07:28:34;;;;;;;5.47;1.17;;;;;;;12.18;72.70;149172.47;5061990;28;20239;-51
2023/10/22 07:31:01;;;;;;;5.10;1.00;;;;;;;12.19;72.60;149174.97;5066222;28;20242;-51
2023/10/22 07:33:28;;;;;;;3.90;0.70;;;;;;;12.22;74.26;149182.44;5065563;28;20574;-53
2023/10/22 07:35:56;;;;;;;3.53;0.70;;;;;;;12.21;74.41;149178.69;5063980;28;20329;-51
2023/10/22 07:38:24;;;;;;;9.90;1.10;;;;;;;12.25;72.77;149189.91;5065794;28;20237;-51
2023/10/22 07:40:55;;;;;;;2.33;0.80;;;;;;;12.39;71.03;149223.56;5062704;28;20268;-51
2023/10/22 07:43:22;;;;;;;4.87;0.80;;;;;;;12.47;70.50;149242.28;5047793;28;20287;-53
2023/10/22 07:45:49;;;;;;;5.00;0.87;;;;;;;12.53;70.24;149256.00;5062563;28;20228;-51
2023/10/22 07:48:15;;;;;;;4.10;1.10;;;;;;;12.61;70.54;149275.94;5065770;28;20234;-51
2023/10/22 07:50:42;;;;;;;4.30;0.60;;;;;;;12.66;70.80;149287.19;5060513;28;20219;-53
2023/10/22 07:53:10;;;;;;;3.67;0.70;;;;;;;12.73;71.84;149303.38;5066018;28;20236;-52
2023/10/22 07:55:38;;;;;;;4.33;0.70;;;;;;;12.74;69.37;149307.09;5063044;28;20234;-52
2023/10/22 07:58:04;;;;;;;6.63;1.10;;;;;;;12.73;69.01;149304.59;5049808;28;20241;-52
2023/10/22 08:00:31;;;;;;;7.93;0.90;;;;;;;12.81;68.95;149323.34;5064258;28;20253;-52
2023/10/22 08:02:58;;;;;;;5.27;0.80;;;;;;;12.92;69.46;149350.78;5062407;28;20228;-51
2023/10/22 08:05:24;;;;;;;6.33;0.90;;;;;;;12.93;67.83;149353.28;5065026;28;20251;-53
2023/10/22 08:07:52;;;;;;;6.40;1.00;;;;;;;13.02;67.85;149373.25;5062601;28;20301;-53
2023/10/22 08:10:20;;;;;;;13.27;1.20;;;;;;;13.02;68.45;149374.47;5065802;28;20562;-54
2023/10/22 08:12:52;;;;;;;7.97;1.80;;;;;;;13.14;68.41;149404.41;5062098;28;20497;-54
2023/10/22 08:15:19;;;;;;;7.03;1.20;;;;;;;13.11;67.63;149395.69;5065261;28;20441;-54
2023/10/22 08:17:46;;;;;;;4.37;0.90;;;;;;;13.06;67.59;149384.44;5062092;28;20223;-51
2023/10/22 08:20:12;;;;;;;5.37;1.00;;;;;;;13.08;67.29;149389.44;5064625;28;20244;-53
2023/10/22 08:22:39;;;;;;;6.60;1.10;;;;;;;13.12;67.49;149398.19;5060302;28;20701;-51
2023/10/22 08:25:06;;;;;;;6.20;1.30;;;;;;;13.14;68.18;149403.19;5065236;28;20236;-53
2023/10/22 08:27:35;;;;;;;6.17;0.77;;;;;;;13.17;67.70;149409.41;5065124;28;20233;-52
2023/10/22 08:30:01;;;;;;;7.37;1.07;;;;;;;13.22;67.41;149421.88;5062334;28;20230;-53
2023/10/22 08:32:28;;;;;;;8.23;1.27;;;;;;;13.37;67.28;149458.03;5045586;28;20314;-51
2023/10/22 08:34:55;;;;;;;6.53;0.93;;;;;;;13.29;67.38;149440.56;5062138;28;20712;-53
2023/10/22 08:37:21;;;;;;;8.70;1.00;;;;;;;13.32;68.16;149445.56;5065038;28;20237;-51
2023/10/22 08:39:48;;;;;;;6.37;0.90;;;;;;;13.40;66.75;149465.53;5062525;28;20586;-51
2023/10/22 08:42:19;;;;;;;4.50;0.90;;;;;;;13.45;66.76;149478.03;5064930;28;20577;-51
2023/10/22 08:44:48;;;;;;;5.63;0.90;;;;;;;13.41;66.70;149469.34;5061602;28;20836;-51
2023/10/22 08:47:15;;;;;;;6.13;0.90;;;;;;;13.46;67.37;149480.53;5064941;28;20631;-53
2023/10/22 08:49:43;;;;;;;7.37;1.20;;;;;;;13.40;67.63;149465.53;5060795;28;20226;-53
2023/10/22 08:52:09;;;;;;;8.57;1.33;;;;;;;13.50;66.93;149489.31;5064894;28;20231;-51
2023/10/22 08:54:36;;;;;;;8.07;1.23;;;;;;;13.54;66.87;149500.50;5060483;28;20614;-51
2023/10/22 08:57:03;;;;;;;8.77;0.97;;;;;;;13.56;67.06;149504.28;5064569;28;20295;-54
2023/10/22 08:59:30;;;;;;;7.53;1.00;;;;;;;13.60;66.79;149513.00;5064679;28;20237;-54
2023/10/22 09:01:59;;;;;;;7.40;0.93;;;;;;;13.67;66.60;149531.72;5061661;28;20771;-54
2023/10/22 09:04:26;;;;;;;8.00;1.60;;;;;;;13.67;66.16;149531.72;5064378;28;20242;-53
2023/10/22 09:06:53;;;;;;;4.13;0.90;;;;;;;13.65;66.80;149526.75;5061797;28;20229;-54
2023/10/22 09:09:29;;;;;;;8.03;1.20;;;;;;;13.69;67.74;149535.47;5064391;28;20228;-52
2023/10/22 09:11:57;;;;;;;8.87;1.33;;;;;;;13.75;67.40;149549.22;5061560;28;20239;-53
2023/10/22 09:14:24;;;;;;;9.20;1.00;;;;;;;13.61;65.89;149515.50;5045610;28;20780;-51
2023/10/22 09:16:51;;;;;;;6.27;1.10;;;;;;;13.60;66.38;149514.25;5060081;28;20255;-53
2023/10/22 09:19:35;;;;;;;4.37;0.97;;;;;;;13.72;66.94;149544.22;5063315;28;20231;-53
2023/10/22 09:22:05;;;;;;;5.10;0.90;;;;;;;13.64;67.02;149524.25;5050874;28;20235;-52
2023/10/22 09:24:33;;;;;;;6.27;0.90;;;;;;;13.71;67.32;149541.72;5058810;28;20246;-54
2023/10/22 09:27:00;;;;;;;7.50;1.17;;;;;;;13.81;67.14;149564.13;5061032;28;20246;-53
2023/10/22 09:29:26;;;;;;;5.17;0.90;;;;;;;13.91;65.68;149589.09;5064316;28;20222;-52
2023/10/22 09:31:54;;;;;;;8.00;1.50;;;;;;;14.00;66.62;149611.56;5061460;28;20364;-51
2023/10/22 09:34:26;;;;;;;6.87;0.87;;;;;;;13.99;66.15;149607.84;5063814;28;20238;-53
2023/10/22 09:36:54;;;;;;;5.83;0.93;;;;;;;14.11;65.85;149637.81;5061054;28;20218;-52
2023/10/22 09:39:34;;;;;;;9.73;0.80;;;;;;;14.04;65.29;149620.34;5062504;28;20224;-51
2023/10/22 09:42:03;;;;;;;9.10;1.10;;;;;;;14.16;65.05;149650.28;5043306;28;20718;-53
2023/10/22 09:44:30;;;;;;;6.60;1.13;;;;;;;14.05;64.79;149621.56;5058544;28;20234;-52
2023/10/22 09:47:00;;;;;;;6.27;0.83;;;;;;;14.15;65.63;149646.53;5059751;28;20234;-52
2023/10/22 09:49:28;;;;;;;6.53;1.20;;;;;;;14.23;63.35;149665.28;5063490;28;20227;-52
2023/10/22 09:51:59;;;;;;;6.30;1.03;;;;;;;14.36;63.98;149696.47;5058765;28;20250;-54
2023/10/22 09:54:35;;;;;;;8.73;0.93;;;;;;;14.31;62.98;149685.22;5062749;28;20357;-53
2023/10/22 09:57:10;;;;;;;4.97;0.80;;;;;;;14.29;64.39;149680.25;5062633;28;20241;-53
2023/10/22 09:59:36;;;;;;;3.50;0.90;;;;;;;14.20;64.71;149659.00;5057069;28;20226;-52
2023/10/22 10:02:04;;;;;;;7.20;1.17;;;;;;;14.19;65.04;149656.50;5060910;28;20842;-52
2023/10/22 10:04:34;;;;;;;5.57;1.00;;;;;;;14.08;63.31;149629.03;5059517;28;20290;-52
2023/10/22 10:07:04;;;;;;;3.33;0.80;;;;;;;14.29;63.15;149680.25;5061259;28;20644;-52
2023/10/22 10:09:33;;;;;;;7.13;1.23;;;;;;;14.40;63.84;149707.69;5063918;28;20242;-53
2023/10/22 10:12:03;;;;;;;6.00;1.03;;;;;;;14.36;63.20;149696.47;5061411;28;20239;-54
2023/10/22 10:14:42;;;;;;;7.30;1.10;;;;;;;14.32;63.71;149688.97;5062654;28;20582;-52
2023/10/22 10:17:09;;;;;;;5.33;0.90;;;;;;;14.27;63.89;149676.50;5060393;28;20250;-54
2023/10/22 10:19:36;;;;;;;7.33;1.03;;;;;;;14.26;63.36;149674.00;5060955;28;20298;-54
2023/10/22 10:22:05;;;;;;;7.97;0.80;;;;;;;14.19;62.97;149655.28;5059860;28;20235;-54
2023/10/22 10:24:32;;;;;;;11.57;1.30;;;;;;;14.28;63.27;149679.00;5045005;28;20576;-52
2023/10/22 10:27:24;;;;;;;9.77;1.30;;;;;;;14.62;62.02;149760.13;5060520;28;20273;-54
2023/10/22 10:30:17;;;;;;;4.30;0.93;;;;;;;14.57;60.80;149748.91;5060519;28;20218;-52
2023/10/22 10:32:45;;;;;;;8.30;1.63;;;;;;;14.50;63.26;149731.44;5060631;28;20236;-54
2023/10/22 10:35:13;;;;;;;8.83;1.70;;;;;;;14.39;62.33;149703.97;5062007;28;20227;-52
2023/10/22 10:38:19;;;;;;;5.47;1.00;;;;;;;14.22;63.82;149662.78;5058680;28;20226;-53
2023/10/22 10:40:47;;;;;;;7.97;1.40;;;;;;;14.27;63.69;149676.50;5057986;28;20221;-55
2023/10/22 10:43:14;;;;;;;9.33;1.20;;;;;;;14.63;62.70;149761.41;5062390;28;20226;-52
2023/10/22 10:46:19;;;;;;;4.87;0.97;;;;;;;14.93;62.08;149835.09;5056678;28;20212;-53
2023/10/22 10:48:47;;;;;;;9.77;1.40;;;;;;;14.78;61.75;149798.91;5058021;28;20224;-54
2023/10/22 10:51:18;;;;;;;13.67;1.87;;;;;;;14.85;61.00;149815.13;5062834;28;20290;-52
2023/10/22 10:54:17;;;;;;;5.10;1.10;;;;;;;14.77;61.20;149796.41;5060449;28;20257;-53
2023/10/22 10:56:54;;;;;;;6.63;0.87;;;;;;;14.78;62.01;149798.91;5053871;28;20219;-54
2023/10/22 10:59:30;;;;;;;5.60;0.90;;;;;;;14.74;61.47;149790.16;5066412;28;20635;-52
2023/10/22 11:02:01;;;;;;;10.07;1.13;;;;;;;14.70;62.31;149780.16;5063908;28;20716;-53
2023/10/22 11:04:28;;;;;;;3.30;0.70;;;;;;;14.65;61.80;149766.41;5065673;28;20226;-53
2023/10/22 11:06:55;;;;;;;6.47;1.00;;;;;;;14.99;61.29;149848.81;5064243;28;20232;-54
2023/10/22 11:09:23;;;;;;;4.37;1.03;;;;;;;15.32;60.84;149928.78;5066733;28;20231;-52
2023/10/22 11:11:58;;;;;;;6.63;1.00;;;;;;;15.44;59.21;149957.47;5063016;28;20216;-55
2023/10/22 11:14:25;;;;;;;5.57;1.00;;;;;;;15.52;58.54;149977.47;5064426;28;20239;-53
2023/10/22 11:16:53;;;;;;;9.00;1.10;;;;;;;15.66;59.84;150011.25;5062041;28;20614;-51
2023/10/22 11:19:24;;;;;;;5.87;1.00;;;;;;;15.69;57.73;150018.75;5065392;28;20771;-53
2023/10/22 11:21:52;;;;;;;7.27;1.17;;;;;;;15.47;58.92;149966.25;5063181;28;20233;-53
2023/10/22 11:24:20;;;;;;;5.37;0.83;;;;;;;15.64;59.68;150006.25;5066106;28;20233;-55
2023/10/22 11:26:50;;;;;;;5.30;0.73;;;;;;;15.49;58.94;149969.97;5061177;28;20220;-52
2023/10/22 11:29:16;;;;;;;5.27;1.00;;;;;;;15.34;58.94;149935.03;5065935;28;20240;-54
2023/10/22 11:31:57;;;;;;;6.87;1.00;;;;;;;15.33;59.12;149931.28;5063193;28;20228;-51
2023/10/22 11:34:24;;;;;;;4.30;0.93;;;;;;;15.46;58.24;149962.47;5065087;28;20244;-53